Terminal Aerodrome Forecast
Issued by NWS

Home | Current Version | Previous Version | Text Only | Print | Product List | Glossary On
Versions: 1 2 3 4 5 6 7 8 9 10 11 12 13
032
FTUS46 KMTR 271729
TAFSNS
TAF
KSNS 271729Z 2718/2818 29013KT P6SM FEW030
     FM272100 29016G25KT P6SM FEW030
     FM280300 28009KT P6SM SKC
     FM280900 27007KT P6SM FEW040
     FM281200 VRB04KT P6SM FEW030=

USA.gov is the U.S. government's official web portal to all federal, state and local government web resources and services.